Time,TemperatureF,DewpointF,PressureIn,WindDirection,WindDirectionDegrees,WindSpeedMPH,WindSpeedGustMPH,Humidity,HourlyPrecipIn,Conditions,Clouds,dailyrainin,SoftwareType,DateUTC
2013-07-18 00:43:00,72.0,72.0,30.05,North,0,0.0,-999.0,100,-99.99,,,-99.99,,2013-07-18 04:43:00,
2013-07-18 01:02:00,-999.0,-99.9,30.04,South,180,3.0,-999.0,-999,-99.99,,,-99.99,,2013-07-18 05:02:00,
2013-07-18 01:11:00,-999.0,-99.9,30.03,SSW,200,5.0,-999.0,-999,-99.99,,,-99.99,,2013-07-18 05:11:00,
2013-07-18 01:22:00,-999.0,-99.9,30.03,SSW,210,3.0,-999.0,-999,-99.99,,,-99.99,,2013-07-18 05:22:00,
2013-07-18 01:32:00,-999.0,-99.9,30.03,WSW,240,5.0,-999.0,-999,-99.99,,,-99.99,,2013-07-18 05:32:00,
2013-07-18 01:43:00,-999.0,-99.9,30.03,WSW,250,3.0,-999.0,-999,-99.99,,,-99.99,,2013-07-18 05:43:00,
2013-07-18 01:52:00,-999.0,-99.9,30.03,SW,230,3.0,-999.0,-999,-99.99,,,-99.99,,2013-07-18 05:52:00,
2013-07-18 02:01:00,-999.0,-99.9,30.04,WSW,240,5.0,-999.0,-999,-99.99,,,-99.99,,2013-07-18 06:01:00,
2013-07-18 02:12:00,-999.0,-99.9,30.04,WSW,240,5.0,-999.0,-999,-99.99,,,-99.99,,2013-07-18 06:12:00,
2013-07-18 02:22:00,-999.0,-99.9,30.04,WSW,240,3.0,-999.0,-999,-99.99,,,-99.99,,2013-07-18 06:22:00,
2013-07-18 02:32:00,-999.0,-99.9,30.04,WSW,250,3.0,-999.0,-999,-99.99,,,-99.99,,2013-07-18 06:32:00,
2013-07-18 02:43:00,-999.0,-99.9,30.04,SW,220,3.0,-999.0,-999,-99.99,,,-99.99,,2013-07-18 06:43:00,
2013-07-18 02:52:00,-999.0,-99.9,30.04,SW,220,3.0,-999.0,-999,-99.99,,,-99.99,,2013-07-18 06:52:00,
2013-07-18 03:01:00,-999.0,-99.9,30.03,SSW,200,3.0,-999.0,-999,-99.99,,,-99.99,,2013-07-18 07:01:00,
2013-07-18 03:12:00,-999.0,-99.9,30.04,SSW,210,3.0,-999.0,-999,-99.99,,,-99.99,,2013-07-18 07:12:00,
2013-07-18 03:22:00,-999.0,-99.9,30.04,North,0,0.0,-999.0,-999,-99.99,,,-99.99,,2013-07-18 07:22:00,
2013-07-18 03:32:00,-999.0,-99.9,30.04,North,0,0.0,-999.0,-999,-99.99,,,-99.99,,2013-07-18 07:32:00,
2013-07-18 03:42:00,-999.0,-99.9,30.04,North,0,0.0,-999.0,-999,-99.99,,,-99.99,,2013-07-18 07:42:00,
2013-07-18 03:52:00,-999.0,-99.9,30.03,SSW,200,5.0,-999.0,-999,-99.99,,,-99.99,,2013-07-18 07:52:00,
2013-07-18 04:01:00,-999.0,-99.9,30.03,SW,220,3.0,-999.0,-999,-99.99,,,-99.99,,2013-07-18 08:01:00,
2013-07-18 04:11:00,-999.0,-99.9,30.03,SW,230,3.0,-999.0,-999,-99.99,,,-99.99,,2013-07-18 08:11:00,
2013-07-18 04:21:00,-999.0,-99.9,30.04,WSW,240,3.0,-999.0,-999,-99.99,,,-99.99,,2013-07-18 08:21:00,
2013-07-18 04:32:00,-999.0,-99.9,30.04,WSW,240,3.0,-999.0,-999,-99.99,,,-99.99,,2013-07-18 08:32:00,
2013-07-18 04:42:00,-999.0,-99.9,30.04,SW,230,3.0,-999.0,-999,-99.99,,,-99.99,,2013-07-18 08:42:00,
2013-07-18 04:52:00,-999.0,-99.9,30.03,SSW,210,3.0,-999.0,-999,-99.99,,,-99.99,,2013-07-18 08:52:00,
2013-07-18 05:01:00,-999.0,-99.9,30.03,SW,230,5.0,-999.0,-999,-99.99,,,-99.99,,2013-07-18 09:01:00,
2013-07-18 05:11:00,-999.0,-99.9,30.03,SW,220,3.0,-999.0,-999,-99.99,,,-99.99,,2013-07-18 09:11:00,
2013-07-18 05:21:00,-999.0,-99.9,30.03,SW,220,5.0,-999.0,-999,-99.99,,,-99.99,,2013-07-18 09:21:00,
2013-07-18 05:32:00,-999.0,-99.9,30.03,SW,220,5.0,-999.0,-999,-99.99,,,-99.99,,2013-07-18 09:32:00,
2013-07-18 05:42:00,-999.0,-99.9,30.03,North,0,0.0,-999.0,-999,-99.99,,,-99.99,,2013-07-18 09:42:00,
2013-07-18 05:52:00,-999.0,-99.9,30.03,North,0,0.0,-999.0,-999,-99.99,,,-99.99,,2013-07-18 09:52:00,
2013-07-18 06:01:00,-999.0,-99.9,30.03,North,0,0.0,-999.0,-999,-99.99,,,-99.99,,2013-07-18 10:01:00,
2013-07-18 06:11:00,-999.0,-99.9,30.04,North,0,0.0,-999.0,-999,-99.99,,,-99.99,,2013-07-18 10:11:00,
2013-07-18 06:22:00,-999.0,-99.9,30.03,North,0,0.0,-999.0,-999,-99.99,,,-99.99,,2013-07-18 10:22:00,
2013-07-18 06:32:00,-999.0,-99.9,30.03,North,0,0.0,-999.0,-999,-99.99,,,-99.99,,2013-07-18 10:32:00,
2013-07-18 06:43:00,-999.0,-99.9,30.03,North,0,0.0,-999.0,-999,-99.99,,,-99.99,,2013-07-18 10:43:00,
2013-07-18 06:52:00,-999.0,-99.9,30.03,North,0,0.0,-999.0,-999,-99.99,,,-99.99,,2013-07-18 10:52:00,
2013-07-18 07:01:00,-999.0,-99.9,30.03,North,0,0.0,-999.0,-999,-99.99,,,-99.99,,2013-07-18 11:01:00,
2013-07-18 07:11:00,-999.0,-99.9,30.03,South,190,3.0,-999.0,-999,-99.99,,,-99.99,,2013-07-18 11:11:00,
2013-07-18 07:22:00,-999.0,-99.9,30.03,South,180,3.0,-999.0,-999,-99.99,,,-99.99,,2013-07-18 11:22:00,
2013-07-18 07:32:00,-999.0,-99.9,30.03,South,190,3.0,-999.0,-999,-99.99,,,-99.99,,2013-07-18 11:32:00,
2013-07-18 16:43:00,73.0,72.0,29.98,West,270,7.0,-999.0,94,-99.99,,,-99.99,,2013-07-18 20:43:00,
2013-07-18 17:43:00,72.0,72.0,29.98,SSW,210,6.0,-999.0,100,-99.99,,,-99.99,,2013-07-18 21:43:00,
2013-07-18 20:01:00,72.0,72.0,29.97,SW,230,8.0,-999.0,100,-99.99,,,-99.99,,2013-07-19 00:01:00,